sensor_id;sensor_type;location;lat;lon;timestamp;pressure;altitude;pressure_sealevel;temperature;humidity
20424;BME280;10371;49.042;8.002;2022-10-17T00:00:19;100288.75;;;13.80;100.00
20424;BME280;10371;49.042;8.002;2022-10-17T00:01:19;100289.59;;;13.80;100.00
20424;BME280;10371;49.042;8.002;2022-10-17T00:02:20;100287.09;;;13.79;100.00
20424;BME280;10371;49.042;8.002;2022-10-17T00:03:20;100282.69;;;13.79;100.00
20424;BME280;10371;49.042;8.002;2022-10-17T00:04:20;100285.44;;;13.78;100.00
20424;BME280;10371;49.042;8.002;2022-10-17T00:05:21;100277.75;;;13.76;100.00
20424;BME280;10371;49.042;8.002;2022-10-17T00:06:21;100284.63;;;13.77;100.00
20424;BME280;10371;49.042;8.002;2022-10-17T00:07:22;100288.06;;;13.78;100.00
20424;BME280;10371;49.042;8.002;2022-10-17T00:08:22;100288.88;;;13.78;100.00
20424;BME280;10371;49.042;8.002;2022-10-17T00:09:23;100288.06;;;13.78;100.00
20424;BME280;10371;49.042;8.002;2022-10-17T00:10:23;100286.41;;;13.77;100.00
20424;BME280;10371;49.042;8.002;2022-10-17T00:11:25;100289.16;;;13.75;100.00
20424;BME280;10371;49.042;8.002;2022-10-17T00:12:25;100287.22;;;13.77;100.00
20424;BME280;10371;49.042;8.002;2022-10-17T00:13:26;100290.66;;;13.78;100.00
20424;BME280;10371;49.042;8.002;2022-10-17T00:14:27;100294.25;;;13.77;100.00
20424;BME280;10371;49.042;8.002;2022-10-17T00:15:27;100299.50;;;13.77;100.00
20424;BME280;10371;49.042;8.002;2022-10-17T00:16:31;100302.13;;;13.77;100.00
20424;BME280;10371;49.042;8.002;2022-10-17T00:17:33;100300.59;;;13.74;100.00
20424;BME280;10371;49.042;8.002;2022-10-17T00:18:33;100297.25;;;13.72;100.00
20424;BME280;10371;49.042;8.002;2022-10-17T00:19:34;100298.50;;;13.68;100.00
20424;BME280;10371;49.042;8.002;2022-10-17T00:20:34;100303.03;;;13.66;100.00
20424;BME280;10371;49.042;8.002;2022-10-17T00:21:35;100304.94;;;13.64;100.00
20424;BME280;10371;49.042;8.002;2022-10-17T00:22:35;100303.31;;;13.63;100.00
20424;BME280;10371;49.042;8.002;2022-10-17T00:23:35;100301.63;;;13.62;100.00
20424;BME280;10371;49.042;8.002;2022-10-17T00:24:35;100304.38;;;13.60;100.00
20424;BME280;10371;49.042;8.002;2022-10-17T00:25:36;100308.78;;;13.60;100.00
20424;BME280;10371;49.042;8.002;2022-10-17T00:26:36;100305.47;;;13.58;100.00
20424;BME280;10371;49.042;8.002;2022-10-17T00:27:38;100310.72;;;13.58;100.00
20424;BME280;10371;49.042;8.002;2022-10-17T00:28:39;100310.00;;;13.56;100.00
20424;BME280;10371;49.042;8.002;2022-10-17T00:29:39;100320.72;;;13.53;100.00
20424;BME280;10371;49.042;8.002;2022-10-17T00:30:40;100320.03;;;13.51;100.00
20424;BME280;10371;49.042;8.002;2022-10-17T00:31:40;100317.56;;;13.49;100.00
20424;BME280;10371;49.042;8.002;2022-10-17T00:32:41;100322.09;;;13.47;100.00
20424;BME280;10371;49.042;8.002;2022-10-17T00:33:41;100318.91;;;13.44;100.00
20424;BME280;10371;49.042;8.002;2022-10-17T00:34:43;100319.53;;;13.36;100.00
20424;BME280;10371;49.042;8.002;2022-10-17T00:35:43;100329.22;;;13.24;100.00
20424;BME280;10371;49.042;8.002;2022-10-17T00:36:43;100329.16;;;13.14;100.00
20424;BME280;10371;49.042;8.002;2022-10-17T00:37:43;100328.75;;;12.98;100.00
20424;BME280;10371;49.042;8.002;2022-10-17T00:38:46;100327.16;;;12.86;100.00
20424;BME280;10371;49.042;8.002;2022-10-17T00:39:47;100329.84;;;12.74;100.00
20424;BME280;10371;49.042;8.002;2022-10-17T00:40:47;100332.25;;;12.66;100.00
20424;BME280;10371;49.042;8.002;2022-10-17T00:41:48;100329.41;;;12.58;100.00
20424;BME280;10371;49.042;8.002;2022-10-17T00:42:48;100327.88;;;12.56;100.00
20424;BME280;10371;49.042;8.002;2022-10-17T00:46:05;100323.47;;;12.56;100.00
20424;BME280;10371;49.042;8.002;2022-10-17T00:47:08;100320.19;;;12.54;100.00
20424;BME280;10371;49.042;8.002;2022-10-17T00:48:11;100317.94;;;12.49;100.00
20424;BME280;10371;49.042;8.002;2022-10-17T00:49:13;100320.78;;;12.46;100.00
20424;BME280;10371;49.042;8.002;2022-10-17T00:50:14;100319.38;;;12.42;100.00
20424;BME280;10371;49.042;8.002;2022-10-17T00:51:15;100313.47;;;12.40;100.00
20424;BME280;10371;49.042;8.002;2022-10-17T00:52:21;100321.41;;;12.39;100.00
20424;BME280;10371;49.042;8.002;2022-10-17T00:53:23;100310.13;;;12.38;100.00
20424;BME280;10371;49.042;8.002;2022-10-17T00:54:27;100309.88;;;12.41;100.00
20424;BME280;10371;49.042;8.002;2022-10-17T00:55:32;100315.81;;;12.43;100.00
20424;BME280;10371;49.042;8.002;2022-10-17T00:56:34;100323.50;;;12.45;100.00
20424;BME280;10371;49.042;8.002;2022-10-17T00:57:35;100325.06;;;12.47;100.00
20424;BME280;10371;49.042;8.002;2022-10-17T00:58:35;100326.72;;;12.48;100.00
20424;BME280;10371;49.042;8.002;2022-10-17T00:59:38;100327.41;;;12.50;100.00
20424;BME280;10371;49.042;8.002;2022-10-17T01:00:41;100325.66;;;12.51;100.00
20424;BME280;10371;49.042;8.002;2022-10-17T01:01:47;100321.38;;;12.50;100.00
20424;BME280;10371;49.042;8.002;2022-10-17T01:02:51;100334.56;;;12.48;100.00
20424;BME280;10371;49.042;8.002;2022-10-17T01:03:51;100326.97;;;12.45;100.00
20424;BME280;10371;49.042;8.002;2022-10-17T01:04:53;100329.94;;;12.41;100.00
20424;BME280;10371;49.042;8.002;2022-10-17T01:05:55;100328.53;;;12.37;100.00
20424;BME280;10371;49.042;8.002;2022-10-17T01:06:56;100331.53;;;12.32;100.00
20424;BME280;10371;49.042;8.002;2022-10-17T01:07:56;100323.94;;;12.29;100.00
20424;BME280;10371;49.042;8.002;2022-10-17T01:08:57;100327.47;;;12.28;100.00
20424;BME280;10371;49.042;8.002;2022-10-17T01:09:57;100323.22;;;12.27;100.00
20424;BME280;10371;49.042;8.002;2022-10-17T01:14:22;100335.56;;;12.25;100.00
20424;BME280;10371;49.042;8.002;2022-10-17T01:16:44;100330.09;;;12.28;100.00
20424;BME280;10371;49.042;8.002;2022-10-17T01:20:58;100333.91;;;12.24;100.00
20424;BME280;10371;49.042;8.002;2022-10-17T01:22:09;100332.22;;;12.23;100.00
20424;BME280;10371;49.042;8.002;2022-10-17T01:25:10;100334.84;;;12.23;100.00
20424;BME280;10371;49.042;8.002;2022-10-17T01:27:58;100329.63;;;12.23;100.00
20424;BME280;10371;49.042;8.002;2022-10-17T01:31:58;100333.19;;;12.22;100.00
20424;BME280;10371;49.042;8.002;2022-10-17T01:33:31;100323.00;;;12.19;100.00
20424;BME280;10371;49.042;8.002;2022-10-17T01:35:49;100329.44;;;12.15;100.00
20424;BME280;10371;49.042;8.002;2022-10-17T01:37:04;100329.44;;;12.15;100.00
20424;BME280;10371;49.042;8.002;2022-10-17T01:38:26;100330.25;;;12.15;100.00
20424;BME280;10371;49.042;8.002;2022-10-17T01:39:52;100329.44;;;12.15;100.00
20424;BME280;10371;49.042;8.002;2022-10-17T01:41:01;100321.69;;;12.13;100.00
20424;BME280;10371;49.042;8.002;2022-10-17T01:44:47;100332.97;;;12.14;100.00
20424;BME280;10371;49.042;8.002;2022-10-17T01:45:52;100330.75;;;12.09;100.00
20424;BME280;10371;49.042;8.002;2022-10-17T01:47:03;100331.81;;;12.06;100.00
20424;BME280;10371;49.042;8.002;2022-10-17T01:48:14;100331.19;;;12.03;100.00
20424;BME280;10371;49.042;8.002;2022-10-17T01:49:21;100330.28;;;12.04;100.00
20424;BME280;10371;49.042;8.002;2022-10-17T01:50:29;100329.56;;;12.02;100.00
20424;BME280;10371;49.042;8.002;2022-10-17T01:51:40;100329.56;;;12.02;100.00
20424;BME280;10371;49.042;8.002;2022-10-17T01:52:51;100330.63;;;11.99;100.00
20424;BME280;10371;49.042;8.002;2022-10-17T01:53:57;100330.72;;;11.98;100.00
20424;BME280;10371;49.042;8.002;2022-10-17T01:55:05;100332.41;;;11.99;100.00
20424;BME280;10371;49.042;8.002;2022-10-17T01:56:08;100329.06;;;11.97;100.00
20424;BME280;10371;49.042;8.002;2022-10-17T01:57:19;100337.47;;;12.00;100.00
20424;BME280;10371;49.042;8.002;2022-10-17T01:58:32;100330.88;;;11.96;100.00
20424;BME280;10371;49.042;8.002;2022-10-17T01:59:40;100333.56;;;11.95;100.00
20424;BME280;10371;49.042;8.002;2022-10-17T02:00:42;100337.16;;;11.94;100.00
20424;BME280;10371;49.042;8.002;2022-10-17T02:01:47;100334.06;;;11.89;100.00
20424;BME280;10371;49.042;8.002;2022-10-17T02:02:51;100338.66;;;11.85;100.00
20424;BME280;10371;49.042;8.002;2022-10-17T02:03:55;100334.03;;;11.77;100.00
20424;BME280;10371;49.042;8.002;2022-10-17T02:04:56;100338.78;;;11.72;100.00
20424;BME280;10371;49.042;8.002;2022-10-17T02:05:57;100338.28;;;11.67;100.00
20424;BME280;10371;49.042;8.002;2022-10-17T02:07:07;100336.88;;;11.63;100.00
20424;BME280;10371;49.042;8.002;2022-10-17T02:08:09;100331.09;;;11.59;100.00
20424;BME280;10371;49.042;8.002;2022-10-17T02:09:21;100332.97;;;11.57;100.00
20424;BME280;10371;49.042;8.002;2022-10-17T02:10:46;100332.97;;;11.57;100.00
20424;BME280;10371;49.042;8.002;2022-10-17T02:14:24;100332.13;;;11.57;100.00
20424;BME280;10371;49.042;8.002;2022-10-17T02:22:37;100329.06;;;11.63;100.00
20424;BME280;10371;49.042;8.002;2022-10-17T02:24:08;100328.47;;;11.59;100.00
20424;BME280;10371;49.042;8.002;2022-10-17T02:27:47;100327.75;;;11.57;100.00
20424;BME280;10371;49.042;8.002;2022-10-17T02:28:46;100328.72;;;11.56;100.00
20424;BME280;10371;49.042;8.002;2022-10-17T02:29:57;100338.19;;;11.57;100.00
20424;BME280;10371;49.042;8.002;2022-10-17T02:31:07;100332.00;;;11.58;100.00
20424;BME280;10371;49.042;8.002;2022-10-17T02:32:14;100334.63;;;11.58;100.00
20424;BME280;10371;49.042;8.002;2022-10-17T02:33:26;100335.47;;;11.59;100.00
20424;BME280;10371;49.042;8.002;2022-10-17T02:34:37;100332.00;;;11.58;100.00
20424;BME280;10371;49.042;8.002;2022-10-17T02:35:42;100327.66;;;11.59;100.00
20424;BME280;10371;49.042;8.002;2022-10-17T02:36:49;100328.22;;;11.62;100.00
20424;BME280;10371;49.042;8.002;2022-10-17T02:37:52;100326.22;;;11.66;100.00
20424;BME280;10371;49.042;8.002;2022-10-17T02:38:53;100327.16;;;11.65;100.00
20424;BME280;10371;49.042;8.002;2022-10-17T02:39:56;100322.78;;;11.66;100.00
20424;BME280;10371;49.042;8.002;2022-10-17T02:40:59;100332.38;;;11.65;100.00
20424;BME280;10371;49.042;8.002;2022-10-17T02:42:02;100328.00;;;11.66;100.00
20424;BME280;10371;49.042;8.002;2022-10-17T02:43:04;100334.84;;;11.67;100.00
20424;BME280;10371;49.042;8.002;2022-10-17T02:44:05;100337.34;;;11.68;100.00
20424;BME280;10371;49.042;8.002;2022-10-17T02:45:07;100337.94;;;11.72;100.00
20424;BME280;10371;49.042;8.002;2022-10-17T02:46:08;100338.78;;;11.72;100.00
20424;BME280;10371;49.042;8.002;2022-10-17T02:47:19;100336.88;;;11.74;100.00
20424;BME280;10371;49.042;8.002;2022-10-17T02:48:23;100341.13;;;11.75;100.00
20424;BME280;10371;49.042;8.002;2022-10-17T02:49:27;100336.78;;;11.76;100.00
20424;BME280;10371;49.042;8.002;2022-10-17T02:50:48;100347.06;;;11.77;100.00
20424;BME280;10371;49.042;8.002;2022-10-17T02:52:15;100340.22;;;11.76;100.00
20424;BME280;10371;49.042;8.002;2022-10-17T02:53:19;100341.03;;;11.77;100.00
20424;BME280;10371;49.042;8.002;2022-10-17T02:54:40;100347.06;;;11.77;100.00
20424;BME280;10371;49.042;8.002;2022-10-17T02:55:49;100343.41;;;11.80;100.00
20424;BME280;10371;49.042;8.002;2022-10-17T02:57:18;100344.13;;;11.82;100.00
20424;BME280;10371;49.042;8.002;2022-10-17T02:58:27;100341.38;;;11.83;100.00
20424;BME280;10371;49.042;8.002;2022-10-17T02:59:31;100342.44;;;11.81;100.00
20424;BME280;10371;49.042;8.002;2022-10-17T03:00:34;100343.16;;;11.83;100.00
20424;BME280;10371;49.042;8.002;2022-10-17T03:01:35;100344.22;;;11.80;100.00
20424;BME280;10371;49.042;8.002;2022-10-17T03:02:53;100349.59;;;11.79;100.00
20424;BME280;10371;49.042;8.002;2022-10-17T03:04:04;100345.44;;;11.76;100.00
20424;BME280;10371;49.042;8.002;2022-10-17T03:05:06;100352.44;;;11.76;100.00
20424;BME280;10371;49.042;8.002;2022-10-17T03:06:06;100355.97;;;11.75;100.00
20424;BME280;10371;49.042;8.002;2022-10-17T03:07:06;100351.72;;;11.74;100.00
20424;BME280;10371;49.042;8.002;2022-10-17T03:08:07;100349.94;;;11.74;100.00
20424;BME280;10371;49.042;8.002;2022-10-17T03:09:07;100358.72;;;11.73;100.00
20424;BME280;10371;49.042;8.002;2022-10-17T03:10:08;100360.34;;;11.74;100.00
20424;BME280;10371;49.042;8.002;2022-10-17T03:11:08;100357.66;;;11.76;100.00
20424;BME280;10371;49.042;8.002;2022-10-17T03:12:08;100354.19;;;11.75;100.00
20424;BME280;10371;49.042;8.002;2022-10-17T03:13:09;100352.44;;;11.76;100.00
20424;BME280;10371;49.042;8.002;2022-10-17T03:14:09;100348.88;;;11.77;100.00
20424;BME280;10371;49.042;8.002;2022-10-17T03:15:10;100353.13;;;11.78;100.00
20424;BME280;10371;49.042;8.002;2022-10-17T03:16:10;100354.81;;;11.79;100.00
20424;BME280;10371;49.042;8.002;2022-10-17T03:17:10;100348.88;;;11.77;100.00
20424;BME280;10371;49.042;8.002;2022-10-17T03:18:11;100347.91;;;11.78;100.00
20424;BME280;10371;49.042;8.002;2022-10-17T03:19:11;100346.00;;;11.80;100.00
20424;BME280;10371;49.042;8.002;2022-10-17T03:20:11;100343.53;;;11.78;100.00
20424;BME280;10371;49.042;8.002;2022-10-17T03:21:12;100342.81;;;11.76;100.00
20424;BME280;10371;49.042;8.002;2022-10-17T03:22:12;100348.03;;;11.76;100.00
20424;BME280;10371;49.042;8.002;2022-10-17T03:23:12;100349.09;;;11.74;100.00
20424;BME280;10371;49.042;8.002;2022-10-17T03:24:13;100350.75;;;11.75;100.00
20424;BME280;10371;49.042;8.002;2022-10-17T03:25:13;100349.81;;;11.76;100.00
20424;BME280;10371;49.042;8.002;2022-10-17T03:26:13;100349.69;;;11.77;100.00
20424;BME280;10371;49.042;8.002;2022-10-17T03:27:14;100355.50;;;11.81;100.00
20424;BME280;10371;49.042;8.002;2022-10-17T03:28:14;100356.22;;;11.83;100.00
20424;BME280;10371;49.042;8.002;2022-10-17T03:29:15;100353.75;;;11.81;100.00
20424;BME280;10371;49.042;8.002;2022-10-17T03:30:15;100342.69;;;11.78;100.00
20424;BME280;10371;49.042;8.002;2022-10-17T03:31:16;100353.34;;;11.75;100.00
20424;BME280;10371;49.042;8.002;2022-10-17T03:32:16;100344.72;;;11.74;100.00
20424;BME280;10371;49.042;8.002;2022-10-17T03:33:17;100355.03;;;11.76;100.00
20424;BME280;10371;49.042;8.002;2022-10-17T03:34:17;100351.72;;;11.74;100.00
20424;BME280;10371;49.042;8.002;2022-10-17T03:35:18;100351.81;;;11.72;100.00
20424;BME280;10371;49.042;8.002;2022-10-17T03:36:18;100353.59;;;11.72;100.00
20424;BME280;10371;49.042;8.002;2022-10-17T03:37:19;100357.16;;;11.71;100.00
20424;BME280;10371;49.042;8.002;2022-10-17T03:38:19;100352.06;;;11.69;100.00
20424;BME280;10371;49.042;8.002;2022-10-17T03:39:19;100355.50;;;11.70;100.00
20424;BME280;10371;49.042;8.002;2022-10-17T03:40:20;100356.34;;;11.70;100.00
20424;BME280;10371;49.042;8.002;2022-10-17T03:41:20;100356.22;;;11.72;100.00
20424;BME280;10371;49.042;8.002;2022-10-17T03:42:20;100363.22;;;11.71;100.00
20424;BME280;10371;49.042;8.002;2022-10-17T03:43:21;100361.41;;;11.72;100.00
20424;BME280;10371;49.042;8.002;2022-10-17T03:44:21;100360.47;;;11.73;100.00
20424;BME280;10371;49.042;8.002;2022-10-17T03:45:21;100365.69;;;11.73;100.00
20424;BME280;10371;49.042;8.002;2022-10-17T03:46:22;100371.75;;;11.73;100.00
20424;BME280;10371;49.042;8.002;2022-10-17T03:47:22;100370.91;;;11.73;100.00
20424;BME280;10371;49.042;8.002;2022-10-17T03:48:23;100370.31;;;11.69;100.00
20424;BME280;10371;49.042;8.002;2022-10-17T03:49:23;100366.28;;;11.65;100.00
20424;BME280;10371;49.042;8.002;2022-10-17T03:50:23;100369.00;;;11.63;100.00
20424;BME280;10371;49.042;8.002;2022-10-17T03:51:24;100358.81;;;11.60;100.00
20424;BME280;10371;49.042;8.002;2022-10-17T03:52:24;100360.69;;;11.58;100.00
20424;BME280;10371;49.042;8.002;2022-10-17T03:53:24;100361.88;;;11.54;100.00
20424;BME280;10371;49.042;8.002;2022-10-17T03:54:25;100356.78;;;11.53;100.00
20424;BME280;10371;49.042;8.002;2022-10-17T03:55:25;100360.56;;;11.49;100.00
20424;BME280;10371;49.042;8.002;2022-10-17T03:56:26;100355.47;;;11.47;100.00
20424;BME280;10371;49.042;8.002;2022-10-17T03:57:26;100363.28;;;11.47;100.00
20424;BME280;10371;49.042;8.002;2022-10-17T03:58:27;100364.00;;;11.49;100.00
20424;BME280;10371;49.042;8.002;2022-10-17T03:59:27;100371.94;;;11.48;100.00
20424;BME280;10371;49.042;8.002;2022-10-17T04:00:28;100364.00;;;11.49;100.00
20424;BME280;10371;49.042;8.002;2022-10-17T04:01:28;100371.81;;;11.49;100.00
20424;BME280;10371;49.042;8.002;2022-10-17T04:02:28;100368.41;;;11.49;100.00
20424;BME280;10371;49.042;8.002;2022-10-17T04:03:29;100383.22;;;11.48;100.00
20424;BME280;10371;49.042;8.002;2022-10-17T04:04:29;100376.31;;;11.47;100.00
20424;BME280;10371;49.042;8.002;2022-10-17T04:05:29;100373.94;;;11.44;100.00
20424;BME280;10371;49.042;8.002;2022-10-17T04:06:30;100374.09;;;11.43;100.00
20424;BME280;10371;49.042;8.002;2022-10-17T04:07:30;100372.31;;;11.43;100.00
20424;BME280;10371;49.042;8.002;2022-10-17T04:08:31;100378.69;;;11.50;100.00
20424;BME280;10371;49.042;8.002;2022-10-17T04:09:31;100372.88;;;11.47;100.00
20424;BME280;10371;49.042;8.002;2022-10-17T04:10:32;100369.00;;;11.52;100.00
20424;BME280;10371;49.042;8.002;2022-10-17T04:11:32;100372.31;;;11.66;100.00
20424;BME280;10371;49.042;8.002;2022-10-17T04:12:33;100376.13;;;11.73;100.00
20424;BME280;10371;49.042;8.002;2022-10-17T04:13:34;100377.53;;;11.66;100.00
20424;BME280;10371;49.042;8.002;2022-10-17T04:14:35;100374.34;;;11.62;100.00
20424;BME280;10371;49.042;8.002;2022-10-17T04:15:36;100376.25;;;11.60;100.00
20424;BME280;10371;49.042;8.002;2022-10-17T04:16:37;100374.78;;;11.45;100.00
20424;BME280;10371;49.042;8.002;2022-10-17T04:17:37;100369.31;;;11.36;100.00
20424;BME280;10371;49.042;8.002;2022-10-17T04:18:38;100370.25;;;11.35;100.00
20424;BME280;10371;49.042;8.002;2022-10-17T04:19:38;100373.94;;;11.33;100.00
20424;BME280;10371;49.042;8.002;2022-10-17T04:20:38;100377.97;;;11.37;100.00
20424;BME280;10371;49.042;8.002;2022-10-17T04:21:39;100376.69;;;11.43;100.00
20424;BME280;10371;49.042;8.002;2022-10-17T04:22:39;100372.78;;;11.48;100.00
20424;BME280;10371;49.042;8.002;2022-10-17T04:23:39;100371.72;;;11.51;100.00
20424;BME280;10371;49.042;8.002;2022-10-17T04:24:40;100372.56;;;11.51;100.00
20424;BME280;10371;49.042;8.002;2022-10-17T04:25:40;100375.16;;;11.51;100.00
20424;BME280;10371;49.042;8.002;2022-10-17T04:26:41;100374.19;;;11.52;100.00
20424;BME280;10371;49.042;8.002;2022-10-17T04:27:41;100368.25;;;11.50;100.00
20424;BME280;10371;49.042;8.002;2022-10-17T04:28:41;100369.72;;;11.54;100.00
20424;BME280;10371;49.042;8.002;2022-10-17T04:29:41;100368.25;;;11.50;100.00
20424;BME280;10371;49.042;8.002;2022-10-17T04:30:43;100374.09;;;11.54;100.00
20424;BME280;10371;49.042;8.002;2022-10-17T04:31:43;100374.44;;;11.49;100.00
20424;BME280;10371;49.042;8.002;2022-10-17T04:32:43;100376.09;;;11.50;100.00
20424;BME280;10371;49.042;8.002;2022-10-17T04:33:47;100382.03;;;11.52;100.00
20424;BME280;10371;49.042;8.002;2022-10-17T04:34:48;100374.44;;;11.49;100.00
20424;BME280;10371;49.042;8.002;2022-10-17T04:36:16;100373.03;;;11.45;100.00
20424;BME280;10371;49.042;8.002;2022-10-17T04:37:17;100384.38;;;11.44;100.00
20424;BME280;10371;49.042;8.002;2022-10-17T04:38:17;100381.91;;;11.43;100.00
20424;BME280;10371;49.042;8.002;2022-10-17T04:39:17;100374.91;;;11.43;100.00
20424;BME280;10371;49.042;8.002;2022-10-17T04:40:17;100380.94;;;11.44;100.00
20424;BME280;10371;49.042;8.002;2022-10-17T04:41:18;100380.13;;;11.43;100.00
20424;BME280;10371;49.042;8.002;2022-10-17T04:42:18;100389.72;;;11.43;100.00
20424;BME280;10371;49.042;8.002;2022-10-17T04:43:19;100390.56;;;11.43;100.00
20424;BME280;10371;49.042;8.002;2022-10-17T04:44:19;100376.94;;;11.39;100.00
20424;BME280;10371;49.042;8.002;2022-10-17T04:45:19;100385.56;;;11.40;100.00
20424;BME280;10371;49.042;8.002;2022-10-17T04:46:20;100376.19;;;11.37;100.00
20424;BME280;10371;49.042;8.002;2022-10-17T04:47:20;100378.31;;;11.32;100.00
20424;BME280;10371;49.042;8.002;2022-10-17T04:48:20;100372.28;;;11.32;100.00
20424;BME280;10371;49.042;8.002;2022-10-17T04:49:21;100389.56;;;11.33;100.00
20424;BME280;10371;49.042;8.002;2022-10-17T04:50:21;100393.72;;;11.35;100.00
20424;BME280;10371;49.042;8.002;2022-10-17T04:51:21;100384.34;;;11.33;100.00
20424;BME280;10371;49.042;8.002;2022-10-17T04:52:22;100391.44;;;11.31;100.00
20424;BME280;10371;49.042;8.002;2022-10-17T04:53:22;100392.53;;;11.28;100.00
20424;BME280;10371;49.042;8.002;2022-10-17T04:54:23;100403.06;;;11.27;100.00
20424;BME280;10371;49.042;8.002;2022-10-17T04:55:23;100400.56;;;11.25;100.00
20424;BME280;10371;49.042;8.002;2022-10-17T04:56:24;100404.94;;;11.25;100.00
20424;BME280;10371;49.042;8.002;2022-10-17T04:57:24;100404.03;;;11.26;100.00
20424;BME280;10371;49.042;8.002;2022-10-17T04:58:27;100405.91;;;11.24;100.00
20424;BME280;10371;49.042;8.002;2022-10-17T04:59:28;100400.28;;;11.17;100.00
20424;BME280;10371;49.042;8.002;2022-10-17T05:00:30;100403.47;;;11.09;100.00
20424;BME280;10371;49.042;8.002;2022-10-17T05:01:30;100398.50;;;11.06;100.00
20424;BME280;10371;49.042;8.002;2022-10-17T05:02:30;100400.38;;;11.04;100.00
20424;BME280;10371;49.042;8.002;2022-10-17T05:03:31;100398.09;;;11.00;100.00
20424;BME280;10371;49.042;8.002;2022-10-17T05:04:31;100394.78;;;10.98;100.00
20424;BME280;10371;49.042;8.002;2022-10-17T05:05:31;100400.94;;;10.96;100.00
20424;BME280;10371;49.042;8.002;2022-10-17T05:06:32;100388.13;;;10.93;100.00
20424;BME280;10371;49.042;8.002;2022-10-17T05:07:32;100394.31;;;10.92;100.00
20424;BME280;10371;49.042;8.002;2022-10-17T05:08:33;100404.00;;;10.90;100.00
20424;BME280;10371;49.042;8.002;2022-10-17T05:09:33;100402.06;;;10.81;100.00
20424;BME280;10371;49.042;8.002;2022-10-17T05:10:42;100395.63;;;10.74;100.00
20424;BME280;10371;49.042;8.002;2022-10-17T05:11:42;100402.41;;;10.64;100.00
20424;BME280;10371;49.042;8.002;2022-10-17T05:12:42;100400.03;;;10.61;100.00
20424;BME280;10371;49.042;8.002;2022-10-17T05:13:43;100403.69;;;10.58;100.00
20424;BME280;10371;49.042;8.002;2022-10-17T05:14:43;100406.28;;;10.58;100.00
20424;BME280;10371;49.042;8.002;2022-10-17T05:15:43;100405.38;;;10.59;100.00
20424;BME280;10371;49.042;8.002;2022-10-17T05:16:43;100409.03;;;10.57;100.00
20424;BME280;10371;49.042;8.002;2022-10-17T05:17:44;100409.25;;;10.54;100.00
20424;BME280;10371;49.042;8.002;2022-10-17T05:18:47;100404.25;;;10.50;100.00
20424;BME280;10371;49.042;8.002;2022-10-17T05:19:48;100406.00;;;10.50;100.00
20424;BME280;10371;49.042;8.002;2022-10-17T05:20:49;100413.72;;;10.51;100.00
20424;BME280;10371;49.042;8.002;2022-10-17T05:21:49;100419.75;;;10.52;100.00
20424;BME280;10371;49.042;8.002;2022-10-17T05:22:49;100414.69;;;10.50;100.00
20424;BME280;10371;49.042;8.002;2022-10-17T05:23:50;100410.16;;;10.52;100.00
20424;BME280;10371;49.042;8.002;2022-10-17T05:24:50;100412.91;;;10.51;100.00
20424;BME280;10371;49.042;8.002;2022-10-17T05:25:54;100413.63;;;10.53;100.00
20424;BME280;10371;49.042;8.002;2022-10-17T05:26:54;100415.78;;;10.59;100.00
20424;BME280;10371;49.042;8.002;2022-10-17T05:27:55;100417.44;;;10.60;100.00
20424;BME280;10371;49.042;8.002;2022-10-17T05:28:55;100414.09;;;10.58;100.00
20424;BME280;10371;49.042;8.002;2022-10-17T05:29:55;100422.03;;;10.57;100.00
20424;BME280;10371;49.042;8.002;2022-10-17T05:30:56;100428.47;;;10.64;100.00
20424;BME280;10371;49.042;8.002;2022-10-17T05:31:56;100420.78;;;10.62;100.00
20424;BME280;10371;49.042;8.002;2022-10-17T05:32:56;100414.84;;;10.60;100.00
20424;BME280;10371;49.042;8.002;2022-10-17T05:34:02;100419.09;;;10.61;100.00
20424;BME280;10371;49.042;8.002;2022-10-17T05:35:03;100426.81;;;10.63;100.00
20424;BME280;10371;49.042;8.002;2022-10-17T05:36:05;100425.03;;;10.63;100.00
20424;BME280;10371;49.042;8.002;2022-10-17T05:37:06;100427.63;;;10.63;100.00
20424;BME280;10371;49.042;8.002;2022-10-17T05:38:06;100432.41;;;10.69;100.00
20424;BME280;10371;49.042;8.002;2022-10-17T05:39:06;100437.38;;;10.72;100.00
20424;BME280;10371;49.042;8.002;2022-10-17T05:40:08;100441.34;;;10.78;100.00
20424;BME280;10371;49.042;8.002;2022-10-17T05:41:08;100430.22;;;10.76;100.00
20424;BME280;10371;49.042;8.002;2022-10-17T05:42:09;100436.47;;;10.73;100.00
20424;BME280;10371;49.042;8.002;2022-10-17T05:43:09;100437.38;;;10.72;100.00
20424;BME280;10371;49.042;8.002;2022-10-17T05:44:09;100437.28;;;10.74;100.00
20424;BME280;10371;49.042;8.002;2022-10-17T05:45:10;100435.41;;;10.76;100.00
20424;BME280;10371;49.042;8.002;2022-10-17T05:46:10;100426.78;;;10.76;100.00
20424;BME280;10371;49.042;8.002;2022-10-17T05:47:10;100436.16;;;10.78;100.00
20424;BME280;10371;49.042;8.002;2022-10-17T05:48:11;100430.81;;;10.80;100.00
20424;BME280;10371;49.042;8.002;2022-10-17T05:49:11;100435.06;;;10.81;100.00
20424;BME280;10371;49.042;8.002;2022-10-17T05:50:11;100426.19;;;10.83;100.00
20424;BME280;10371;49.042;8.002;2022-10-17T05:51:12;100439.00;;;10.86;100.00
20424;BME280;10371;49.042;8.002;2022-10-17T05:52:12;100437.72;;;10.92;100.00
20424;BME280;10371;49.042;8.002;2022-10-17T05:53:13;100434.28;;;10.91;100.00
20424;BME280;10371;49.042;8.002;2022-10-17T05:54:13;100420.44;;;10.91;100.00
20424;BME280;10371;49.042;8.002;2022-10-17T05:55:13;100437.03;;;10.90;100.00
20424;BME280;10371;49.042;8.002;2022-10-17T05:56:14;100437.72;;;10.92;100.00